CheckWX is a tool to help pilots better visualize weather data.  It is not intended as a substitute for an official pre-flight weather briefing.

03:29:05 UTC

KHNZ METAR
Henderson-Oxford Airport
Oxford, North Carolina, USA
Current

29 mins ago

KHNZ 260300Z AUTO 19007KT 10SM CLR 25/19 A3009 RMK AO2 T02520187
Observed
May-26 @ 03:00 UTC
Wind
  • 190° at 7 KTS
Visibility
10 SM
Flight Rules
VFR
Cloud Levels
  • Clear skies
Temperature
25°C / 77°F
Dewpoint
19°C / 66°F
Humidity
69%
Altimeter
30.09" Hg
Pressure
1018.92 hPa
Previous

49 mins ago

KHNZ 260240Z AUTO 18005KT 10SM CLR 25/19 A3009 RMK AO2 T02530185
Observed
May-26 @ 02:40 UTC
Wind
  • 180° at 5 KTS
Visibility
10 SM
Flight Rules
VFR
Cloud Levels
  • Clear skies
Temperature
25°C / 77°F
Dewpoint
19°C / 66°F
Humidity
69%
Altimeter
30.09" Hg
Pressure
1018.92 hPa
Previous

1 hour ago

KHNZ 260220Z AUTO 19007KT 10SM CLR 26/18 A3009 RMK AO2 T02550183
Observed
May-26 @ 02:20 UTC
Wind
  • 190° at 7 KTS
Visibility
10 SM
Flight Rules
VFR
Cloud Levels
  • Clear skies
Temperature
26°C / 79°F
Dewpoint
18°C / 64°F
Humidity
61%
Altimeter
30.09" Hg
Pressure
1018.92 hPa